Time;durP1;ratioP1;P1;durP2;ratioP2;P2;SDS_P1;SDS_P2;PMS_P1;PMS_P2;Temp;Humidity;BMP_temperature;BMP_pressure;BME280_temperature;BME280_humidity;BME280_pressure;Samples;Min_cycle;Max_cycle;Signal;HPM_P1;HPM_P2
2023/07/13 00:00:30;;;;;;;0.60;0.30;;;;;;;20.37;100.00;98081.16;15274994;19;20014;-66
2023/07/13 00:06:07;;;;;;;1.30;0.55;;;;;;;20.37;100.00;98085.81;15269229;19;20018;-66
2023/07/13 00:11:32;;;;;;;0.80;0.50;;;;;;;20.33;100.00;98091.75;15280052;19;20018;-66
2023/07/13 00:17:00;;;;;;;0.93;0.47;;;;;;;20.31;100.00;98104.81;15280304;19;20018;-67
2023/07/13 00:22:28;;;;;;;2.33;0.65;;;;;;;20.25;100.00;98111.25;15277874;19;20723;-67
2023/07/13 00:27:53;;;;;;;0.68;0.47;;;;;;;20.17;100.00;98109.66;15278207;19;20078;-65
2023/07/13 00:33:25;;;;;;;1.00;0.55;;;;;;;20.19;100.00;98114.06;15267106;19;20361;-64
2023/07/13 00:38:53;;;;;;;0.75;0.40;;;;;;;20.20;100.00;98111.09;15277740;19;20043;-65
2023/07/13 00:44:23;;;;;;;1.45;0.60;;;;;;;20.16;100.00;98118.09;15275054;19;20015;-64
2023/07/13 00:49:48;;;;;;;1.10;0.50;;;;;;;20.08;100.00;98110.19;15274244;19;20054;-65
2023/07/13 00:55:17;;;;;;;1.30;0.60;;;;;;;20.02;100.00;98112.81;15273436;19;20626;-65
2023/07/13 01:00:43;;;;;;;3.15;0.60;;;;;;;19.99;100.00;98113.25;15272553;19;20074;-65
2023/07/13 01:06:08;;;;;;;1.35;0.40;;;;;;;19.97;100.00;98109.91;15270248;19;20013;-65
2023/07/13 01:11:36;;;;;;;1.20;0.60;;;;;;;20.00;100.00;98117.66;15274676;19;20021;-64
2023/07/13 01:17:10;;;;;;;1.27;0.50;;;;;;;19.99;100.00;98117.91;15274439;19;20018;-64
2023/07/13 01:22:38;;;;;;;1.15;0.50;;;;;;;19.98;100.00;98121.69;15272704;19;20014;-64
2023/07/13 01:28:04;;;;;;;0.50;0.50;;;;;;;19.94;100.00;98120.47;15276255;19;20631;-65
2023/07/13 01:33:37;;;;;;;0.93;0.50;;;;;;;19.90;100.00;98120.09;15270489;19;20055;-64
2023/07/13 01:39:07;;;;;;;0.90;0.50;;;;;;;19.84;100.00;98113.63;15276114;19;20011;-66
2023/07/13 01:44:33;;;;;;;1.58;0.45;;;;;;;19.80;100.00;98106.94;15275396;19;20098;-66
2023/07/13 01:49:58;;;;;;;1.08;0.43;;;;;;;19.77;100.00;98109.31;15271807;19;20082;-66
2023/07/13 01:55:25;;;;;;;3.47;0.60;;;;;;;19.71;100.00;98109.13;15270380;19;20015;-66
2023/07/13 02:00:52;;;;;;;1.55;0.45;;;;;;;19.57;100.00;98094.00;15264120;19;20656;-65
2023/07/13 02:06:18;;;;;;;1.58;0.52;;;;;;;19.32;100.00;98108.53;15264190;19;20011;-65
2023/07/13 02:11:45;;;;;;;1.08;0.60;;;;;;;19.22;100.00;98108.22;15268862;19;20035;-65
2023/07/13 02:17:15;;;;;;;2.05;0.70;;;;;;;19.11;100.00;98117.97;15268279;19;20019;-65
2023/07/13 02:22:40;;;;;;;1.40;0.60;;;;;;;19.01;100.00;98113.00;15268717;19;20003;-66
2023/07/13 02:28:07;;;;;;;2.15;0.80;;;;;;;18.84;100.00;98117.34;15267953;19;20013;-65
2023/07/13 02:33:39;;;;;;;1.23;0.50;;;;;;;18.70;100.00;98131.09;15266079;19;20046;-65
2023/07/13 02:39:06;;;;;;;1.73;0.53;;;;;;;18.61;100.00;98140.59;15265621;19;20019;-65
2023/07/13 02:44:33;;;;;;;1.38;0.50;;;;;;;18.55;100.00;98128.69;15268307;19;20015;-65
2023/07/13 02:49:58;;;;;;;1.60;0.68;;;;;;;18.54;100.00;98128.88;15267164;19;20021;-65
2023/07/13 02:55:23;;;;;;;1.33;0.60;;;;;;;18.52;100.00;98131.03;15268612;19;20014;-65
2023/07/13 03:00:51;;;;;;;1.20;0.60;;;;;;;18.45;100.00;98131.88;15267211;19;20010;-65
2023/07/13 03:06:16;;;;;;;1.10;0.65;;;;;;;18.35;100.00;98142.44;15266917;19;20015;-65
2023/07/13 03:11:41;;;;;;;0.80;0.52;;;;;;;18.12;100.00;98146.53;15262419;19;20025;-65
2023/07/13 03:17:14;;;;;;;1.50;0.52;;;;;;;17.89;100.00;98151.66;15268056;19;20378;-64
2023/07/13 03:22:32;;;;;;;1.83;0.52;;;;;;;17.77;100.00;98154.19;15268762;19;20010;-67
2023/07/13 03:27:57;;;;;;;1.70;0.60;;;;;;;17.75;100.00;98165.31;15274951;19;20007;-67
2023/07/13 03:33:31;;;;;;;1.90;0.60;;;;;;;17.76;100.00;98161.53;15276789;19;20019;-66
2023/07/13 03:38:58;;;;;;;1.58;0.80;;;;;;;17.78;100.00;98159.44;15277065;19;20015;-66
2023/07/13 03:44:32;;;;;;;2.47;0.60;;;;;;;17.76;100.00;98174.34;15274774;19;20010;-67
2023/07/13 03:50:00;;;;;;;1.08;0.60;;;;;;;17.78;100.00;98175.78;15277836;19;20364;-64
2023/07/13 03:55:26;;;;;;;2.67;0.52;;;;;;;17.78;100.00;98181.25;15278996;19;20029;-67
2023/07/13 04:00:51;;;;;;;1.63;0.80;;;;;;;17.81;100.00;98172.66;15276328;19;20018;-67
2023/07/13 04:06:24;;;;;;;2.30;0.80;;;;;;;17.82;100.00;98177.00;15272950;19;20762;-67
2023/07/13 04:11:50;;;;;;;0.95;0.60;;;;;;;17.81;100.00;98178.09;15282147;19;20014;-67
2023/07/13 04:17:15;;;;;;;3.45;0.70;;;;;;;17.81;100.00;98183.53;15272817;19;20018;-67
2023/07/13 04:22:42;;;;;;;2.05;0.70;;;;;;;17.86;100.00;98188.34;15278131;19;20482;-67
2023/07/13 04:28:07;;;;;;;1.25;0.60;;;;;;;17.80;100.00;98189.19;15271844;19;20033;-68
2023/07/13 04:33:38;;;;;;;1.52;0.60;;;;;;;17.80;100.00;98179.13;15270783;19;20039;-69
2023/07/13 04:39:08;;;;;;;2.30;0.80;;;;;;;17.72;100.00;98190.25;15272685;19;20463;-68
2023/07/13 04:44:34;;;;;;;2.15;0.70;;;;;;;17.69;100.00;98199.69;15274875;19;20376;-70
2023/07/13 04:50:00;;;;;;;3.28;0.70;;;;;;;17.67;100.00;98195.53;15274197;19;20011;-69
2023/07/13 04:55:30;;;;;;;5.30;0.95;;;;;;;17.62;100.00;98200.75;15277758;19;20082;-70
2023/07/13 05:00:56;;;;;;;4.32;0.80;;;;;;;17.67;100.00;98206.41;15272016;19;20038;-69
2023/07/13 05:06:22;;;;;;;3.33;0.85;;;;;;;17.67;100.00;98212.69;15274001;19;20078;-69
2023/07/13 05:11:50;;;;;;;1.80;0.80;;;;;;;17.69;100.00;98213.31;15276706;19;20016;-69
2023/07/13 05:17:15;;;;;;;1.77;0.90;;;;;;;17.76;100.00;98213.31;15277204;19;20013;-70
2023/07/13 05:22:40;;;;;;;1.50;0.70;;;;;;;17.86;100.00;98210.97;15274148;19;20007;-69
2023/07/13 05:28:08;;;;;;;1.63;0.80;;;;;;;17.97;100.00;98211.38;15274050;19;20006;-69
2023/07/13 05:33:40;;;;;;;1.55;0.80;;;;;;;18.06;100.00;98212.00;15273028;19;20021;-69
2023/07/13 05:39:06;;;;;;;2.20;0.95;;;;;;;18.17;100.00;98222.22;15273270;19;20022;-69
2023/07/13 05:44:34;;;;;;;2.15;0.90;;;;;;;18.30;100.00;98232.22;15273166;19;20018;-68
2023/07/13 05:49:58;;;;;;;2.53;0.90;;;;;;;18.44;100.00;98231.13;15269251;19;20031;-67
2023/07/13 05:55:25;;;;;;;4.00;1.08;;;;;;;18.47;100.00;98233.44;15268315;19;20791;-69
2023/07/13 06:01:03;;;;;;;1.73;0.80;;;;;;;18.41;100.00;98244.38;15271593;19;20518;-71
2023/07/13 06:06:28;;;;;;;1.48;0.70;;;;;;;18.40;100.00;98242.69;15271071;19;20221;-70
2023/07/13 06:11:53;;;;;;;2.60;0.85;;;;;;;18.37;100.00;98241.25;15273264;19;20018;-69
2023/07/13 06:17:20;;;;;;;2.72;0.93;;;;;;;18.46;100.00;98248.13;15269605;19;20738;-69
2023/07/13 06:22:46;;;;;;;1.73;0.90;;;;;;;18.61;100.00;98247.84;15271644;19;20532;-70
2023/07/13 06:28:12;;;;;;;1.33;0.77;;;;;;;18.77;100.00;98248.38;15262787;19;20027;-73
2023/07/13 06:33:40;;;;;;;1.85;0.90;;;;;;;19.02;100.00;98253.91;15266638;19;20022;-71
2023/07/13 06:39:05;;;;;;;2.35;0.98;;;;;;;19.29;100.00;98250.16;15269580;19;20014;-69
2023/07/13 06:44:30;;;;;;;3.97;0.80;;;;;;;19.47;100.00;98260.31;15268520;19;20011;-71
2023/07/13 06:49:58;;;;;;;1.85;0.80;;;;;;;19.61;100.00;98261.88;15268367;19;20242;-71
2023/07/13 06:55:23;;;;;;;2.13;0.90;;;;;;;19.68;100.00;98265.41;15270040;19;20015;-71
2023/07/13 07:00:48;;;;;;;4.13;1.10;;;;;;;19.71;100.00;98261.38;15273347;19;20006;-71
2023/07/13 07:06:20;;;;;;;2.00;0.90;;;;;;;19.90;100.00;98275.94;15279668;19;20340;-70
2023/07/13 07:11:44;;;;;;;2.33;0.90;;;;;;;20.08;100.00;98274.28;15281311;19;20591;-70
2023/07/13 07:17:20;;;;;;;2.03;0.90;;;;;;;20.31;100.00;98274.44;15280826;19;20018;-71
2023/07/13 07:22:48;;;;;;;2.17;0.90;;;;;;;20.33;100.00;98283.25;15284084;19;20010;-71
2023/07/13 07:28:12;;;;;;;2.50;0.93;;;;;;;20.41;100.00;98289.47;15273122;19;20014;-71
2023/07/13 07:33:49;;;;;;;2.83;0.98;;;;;;;20.33;100.00;98286.00;15272982;19;20022;-69
2023/07/13 07:39:24;;;;;;;1.48;0.80;;;;;;;20.21;100.00;98287.81;15275840;19;20018;-69
2023/07/13 07:44:48;;;;;;;2.83;1.00;;;;;;;20.25;100.00;98289.03;15280373;19;20007;-71
2023/07/13 07:50:14;;;;;;;3.83;0.98;;;;;;;20.44;100.00;98286.28;15278619;19;20050;-70
2023/07/13 07:55:41;;;;;;;3.83;0.85;;;;;;;20.62;100.00;98290.91;15281437;19;20078;-71
2023/07/13 08:01:13;;;;;;;2.17;0.90;;;;;;;20.71;100.00;98288.69;15271215;19;20029;-71
2023/07/13 08:06:40;;;;;;;2.22;0.90;;;;;;;20.84;100.00;98288.56;15277293;19;20014;-69
2023/07/13 08:12:08;;;;;;;4.45;0.70;;;;;;;20.98;100.00;98293.84;15278985;19;20015;-71
2023/07/13 08:17:52;;;;;;;2.25;0.90;;;;;;;21.06;100.00;98288.03;15273670;19;20018;-70
2023/07/13 08:23:19;;;;;;;1.63;0.80;;;;;;;21.23;100.00;98280.81;15279098;19;20010;-68
2023/07/13 08:28:46;;;;;;;2.35;1.00;;;;;;;21.33;100.00;98285.72;15274024;19;20019;-68
2023/07/13 08:34:18;;;;;;;2.55;0.90;;;;;;;21.48;100.00;98287.19;15267512;19;20014;-68
2023/07/13 08:39:42;;;;;;;3.85;0.80;;;;;;;21.76;100.00;98277.47;15275675;19;20021;-71
2023/07/13 08:45:17;;;;;;;1.85;0.80;;;;;;;21.87;96.54;98284.88;15274903;19;20016;-70
2023/07/13 08:50:51;;;;;;;2.20;0.80;;;;;;;21.88;93.12;98280.22;15273369;19;21269;-71
2023/07/13 08:56:26;;;;;;;1.75;0.80;;;;;;;21.60;89.76;98290.81;15276019;19;20050;-71
2023/07/13 09:02:07;;;;;;;3.05;0.93;;;;;;;21.60;87.40;98293.56;15276005;19;20013;-70
2023/07/13 09:07:41;;;;;;;3.22;0.73;;;;;;;21.86;83.32;98288.69;15272251;19;20022;-70
2023/07/13 09:13:17;;;;;;;1.88;0.80;;;;;;;21.94;76.93;98287.47;15276538;19;20238;-70
2023/07/13 09:18:50;;;;;;;1.60;0.60;;;;;;;21.94;73.44;98284.75;15273861;19;20081;-69
2023/07/13 09:24:37;;;;;;;2.97;0.80;;;;;;;22.20;71.25;98288.06;15272017;19;20021;-69
2023/07/13 09:30:11;;;;;;;1.73;0.77;;;;;;;22.33;69.17;98285.06;15270824;19;20020;-69
2023/07/13 09:35:39;;;;;;;1.17;0.73;;;;;;;22.27;67.13;98300.59;15273543;19;20094;-69
2023/07/13 09:41:20;;;;;;;3.15;0.60;;;;;;;22.21;67.65;98311.69;15261031;19;20013;-69
2023/07/13 09:46:49;;;;;;;0.52;0.40;;;;;;;22.16;63.38;98318.75;15267954;19;20043;-68
2023/07/13 09:52:21;;;;;;;2.22;0.60;;;;;;;22.50;61.09;98304.41;15272269;19;20047;-69
2023/07/13 09:57:50;;;;;;;0.60;0.30;;;;;;;22.60;57.78;98303.78;15270886;19;20017;-68
2023/07/13 10:03:26;;;;;;;2.40;0.60;;;;;;;22.79;58.27;98318.19;15275207;19;20011;-69
2023/07/13 10:08:53;;;;;;;2.38;0.70;;;;;;;22.88;57.88;98307.63;15264575;19;20018;-69
2023/07/13 10:14:23;;;;;;;2.30;0.52;;;;;;;23.12;58.46;98305.63;15274058;19;20014;-68
2023/07/13 10:19:51;;;;;;;1.20;0.50;;;;;;;23.29;57.18;98297.44;15271169;19;20503;-70
2023/07/13 10:25:28;;;;;;;3.88;0.50;;;;;;;23.16;55.79;98308.72;15268659;19;20475;-68
2023/07/13 10:30:56;;;;;;;2.03;0.50;;;;;;;23.04;53.68;98312.34;15268860;19;20074;-67
2023/07/13 10:36:29;;;;;;;2.63;0.52;;;;;;;23.05;52.72;98303.03;15268155;19;20010;-70
2023/07/13 10:42:00;;;;;;;1.30;0.47;;;;;;;23.32;52.16;98302.47;15269683;19;20074;-69
2023/07/13 10:47:26;;;;;;;4.75;0.50;;;;;;;23.58;52.19;98297.38;15268896;19;20031;-71
2023/07/13 10:52:54;;;;;;;1.38;0.40;;;;;;;23.73;50.41;98309.72;15269938;19;20042;-70
2023/07/13 10:58:31;;;;;;;1.95;0.30;;;;;;;23.67;51.07;98303.31;15268721;19;20078;-71
2023/07/13 11:04:02;;;;;;;1.42;0.32;;;;;;;23.70;51.25;98300.06;15268728;19;20006;-68
2023/07/13 11:09:47;;;;;;;1.45;0.40;;;;;;;24.10;47.87;98303.72;15269161;19;20017;-70
2023/07/13 11:15:17;;;;;;;1.15;0.40;;;;;;;23.84;48.42;98309.66;15269919;19;20014;-72
2023/07/13 11:20:45;;;;;;;2.63;0.50;;;;;;;24.19;49.31;98307.69;15266281;19;20011;-72
2023/07/13 11:26:44;;;;;;;2.75;0.40;;;;;;;24.53;47.96;98291.06;15267199;19;20250;-70
2023/07/13 11:32:39;;;;;;;1.45;0.30;;;;;;;24.49;46.12;98283.59;15264276;19;20452;-69
2023/07/13 11:38:05;;;;;;;1.20;0.40;;;;;;;24.45;47.01;98302.56;15261402;19;20017;-70
2023/07/13 11:43:33;;;;;;;1.75;0.30;;;;;;;24.38;48.07;98279.88;15263610;19;20367;-68
2023/07/13 11:49:01;;;;;;;0.85;0.40;;;;;;;24.44;46.64;98303.63;15276626;19;20025;-69
2023/07/13 11:54:33;;;;;;;1.67;0.40;;;;;;;24.66;47.79;98289.88;15275040;19;20031;-69
2023/07/13 11:59:58;;;;;;;;;;;;;;;24.42;47.16;98297.53;15268240;19;20022;-68
2023/07/13 12:05:29;;;;;;;0.80;0.40;;;;;;;24.55;47.16;98294.41;15281966;19;19914;-68
2023/07/13 12:10:59;;;;;;;;;;;;;;;24.60;46.41;98277.13;15291868;19;20436;-67
2023/07/13 12:16:26;;;;;;;2.45;0.50;;;;;;;24.81;47.13;98286.50;15336935;19;19907;-69
2023/07/13 12:21:58;;;;;;;1.48;0.40;;;;;;;24.58;47.19;98293.91;15327466;19;20148;-69
2023/07/13 12:27:29;;;;;;;;;;;;;;;24.89;45.59;98297.06;15324550;19;20061;-69
2023/07/13 12:38:36;;;;;;;1.35;0.40;;;;;;;24.53;46.93;98296.59;15289660;19;20018;-69
2023/07/13 12:44:02;;;;;;;2.13;0.40;;;;;;;25.17;45.83;98286.88;15290165;19;20013;-68
2023/07/13 12:49:31;;;;;;;0.85;0.30;;;;;;;24.76;45.12;98297.44;15287042;19;20573;-68
2023/07/13 12:55:01;;;;;;;0.82;0.40;;;;;;;24.83;44.71;98294.50;15286038;19;20412;-68
2023/07/13 13:00:35;;;;;;;2.85;0.50;;;;;;;24.50;45.98;98307.28;15285312;19;20472;-67
2023/07/13 13:06:03;;;;;;;2.10;0.50;;;;;;;24.86;46.16;98316.88;15286838;19;20007;-70
2023/07/13 13:11:32;;;;;;;1.42;0.45;;;;;;;24.92;44.94;98307.56;15283678;19;20555;-68
2023/07/13 13:16:57;;;;;;;2.53;0.45;;;;;;;25.13;44.45;98310.53;15281431;19;20014;-68
2023/07/13 13:22:22;;;;;;;3.45;0.43;;;;;;;25.12;46.04;98314.38;15275859;19;20006;-68
2023/07/13 13:27:49;;;;;;;0.38;0.30;;;;;;;25.53;45.38;98313.97;15280358;19;20017;-68
2023/07/13 13:33:18;;;;;;;0.43;0.30;;;;;;;25.78;44.26;98320.81;14770017;19;10000300;-68
2023/07/13 13:38:44;;;;;;;1.02;0.40;;;;;;;25.75;43.05;98310.34;15276094;19;20471;-68
2023/07/13 13:44:17;;;;;;;2.53;0.47;;;;;;;25.47;43.35;98321.38;15278454;19;20011;-70
2023/07/13 13:49:42;;;;;;;1.20;0.40;;;;;;;25.44;44.03;98319.16;15282273;19;20024;-71
2023/07/13 13:55:07;;;;;;;1.08;0.40;;;;;;;25.48;43.88;98316.72;15274769;19;20031;-69
2023/07/13 14:00:34;;;;;;;2.05;0.40;;;;;;;25.42;44.68;98321.34;15277102;19;20013;-70
2023/07/13 14:06:00;;;;;;;4.43;0.43;;;;;;;25.83;44.16;98324.44;15276034;19;20021;-69
2023/07/13 14:11:26;;;;;;;2.78;0.50;;;;;;;25.19;44.21;98320.53;15264854;19;20495;-68
2023/07/13 14:16:55;;;;;;;1.17;0.40;;;;;;;25.39;43.46;98325.44;15277146;19;20498;-69
2023/07/13 14:22:20;;;;;;;1.42;0.40;;;;;;;25.13;44.17;98321.56;15279101;19;20025;-67
2023/07/13 14:27:45;;;;;;;4.28;0.50;;;;;;;25.43;44.39;98309.22;15276888;19;20094;-66
2023/07/13 14:33:14;;;;;;;2.42;0.40;;;;;;;25.88;43.03;98320.06;15273422;19;20014;-70
2023/07/13 14:38:38;;;;;;;1.95;0.50;;;;;;;25.77;42.59;98325.53;15276875;19;20003;-70
2023/07/13 14:44:03;;;;;;;0.90;0.30;;;;;;;26.04;41.97;98327.38;15277629;19;20013;-73
2023/07/13 14:49:35;;;;;;;2.25;0.35;;;;;;;26.23;41.89;98307.66;15276731;19;20018;-66
2023/07/13 14:55:00;;;;;;;1.23;0.40;;;;;;;25.55;42.78;98320.06;15274914;19;20089;-72
2023/07/13 15:00:27;;;;;;;2.22;0.38;;;;;;;25.32;43.50;98316.53;15272092;19;20014;-71
2023/07/13 15:05:55;;;;;;;0.85;0.40;;;;;;;25.63;42.94;98321.53;15275515;19;20014;-70
2023/07/13 15:11:19;;;;;;;0.93;0.30;;;;;;;26.27;42.74;98312.38;15276020;19;20408;-70
2023/07/13 15:16:45;;;;;;;1.27;0.43;;;;;;;25.79;41.75;98317.81;15278791;19;20046;-69
2023/07/13 15:22:13;;;;;;;2.15;0.22;;;;;;;25.91;42.79;98303.81;15300300;19;20011;-73
2023/07/13 15:27:40;;;;;;;3.30;0.40;;;;;;;26.62;41.27;98304.53;15283579;19;20429;-73
2023/07/13 15:33:05;;;;;;;3.38;0.40;;;;;;;25.98;41.78;98309.09;15271222;19;20010;-71
2023/07/13 15:38:34;;;;;;;0.88;0.30;;;;;;;25.72;41.72;98306.16;15287268;19;20074;-69
2023/07/13 15:44:00;;;;;;;1.15;0.40;;;;;;;25.82;42.44;98308.16;15287388;19;20028;-73
2023/07/13 15:49:27;;;;;;;1.27;0.30;;;;;;;25.89;42.12;98294.97;15287814;19;20333;-68
2023/07/13 15:54:54;;;;;;;1.45;0.30;;;;;;;25.50;42.32;98309.00;15302033;19;20014;-67
2023/07/13 16:00:25;;;;;;;1.00;0.40;;;;;;;25.24;43.31;98314.25;15296539;19;20014;-73
2023/07/13 16:05:56;;;;;;;1.17;0.50;;;;;;;25.68;43.13;98310.56;15298274;19;20027;-70
2023/07/13 16:11:27;;;;;;;2.25;0.32;;;;;;;26.12;42.37;98315.03;15289087;19;20050;-68
2023/07/13 16:16:55;;;;;;;0.63;0.32;;;;;;;26.00;42.64;98306.91;15283589;19;20018;-67
2023/07/13 16:22:22;;;;;;;1.60;0.63;;;;;;;25.82;43.22;98311.75;15281893;19;20373;-67
2023/07/13 16:27:49;;;;;;;0.95;0.38;;;;;;;25.41;43.43;98316.94;15277267;19;20082;-68
2023/07/13 16:33:15;;;;;;;0.85;0.40;;;;;;;25.17;43.39;98321.88;15273916;19;20016;-68
2023/07/13 16:38:39;;;;;;;1.30;0.40;;;;;;;24.93;43.78;98317.50;15272751;19;20029;-66
2023/07/13 16:44:13;;;;;;;0.35;0.30;;;;;;;24.72;44.04;98332.13;15278307;19;20018;-67
2023/07/13 16:49:39;;;;;;;0.93;0.43;;;;;;;24.61;45.51;98331.97;15276646;19;20090;-66
2023/07/13 16:55:04;;;;;;;1.38;0.40;;;;;;;24.54;45.80;98342.31;15277412;19;20007;-67
2023/07/13 17:00:37;;;;;;;1.63;0.40;;;;;;;24.38;45.08;98337.72;15274780;19;20011;-66
2023/07/13 17:06:05;;;;;;;1.48;0.40;;;;;;;24.24;45.65;98343.56;15274614;19;20009;-66
2023/07/13 17:11:32;;;;;;;0.50;0.30;;;;;;;24.08;47.18;98347.16;15268625;19;20019;-65
2023/07/13 17:17:00;;;;;;;1.42;0.47;;;;;;;24.38;47.18;98351.47;15274345;19;20101;-66
2023/07/13 17:22:27;;;;;;;0.80;0.30;;;;;;;24.52;47.30;98350.00;15270938;19;20040;-66
2023/07/13 17:27:53;;;;;;;1.90;0.40;;;;;;;24.69;47.22;98341.75;15269620;19;20479;-66
2023/07/13 17:33:36;;;;;;;2.85;0.40;;;;;;;24.59;46.77;98349.81;15278363;19;20047;-66
2023/07/13 17:39:04;;;;;;;1.05;0.40;;;;;;;24.49;47.26;98349.69;15282233;19;20034;-66
2023/07/13 17:44:28;;;;;;;1.90;0.50;;;;;;;24.55;46.96;98360.50;15278293;19;20014;-66
2023/07/13 17:49:56;;;;;;;2.67;0.60;;;;;;;24.47;46.85;98359.03;15280149;19;20074;-66
2023/07/13 17:55:25;;;;;;;1.48;0.70;;;;;;;24.14;47.25;98370.94;15278145;19;20031;-65
2023/07/13 18:00:51;;;;;;;2.83;0.60;;;;;;;23.96;47.83;98369.28;15276485;19;20089;-65
2023/07/13 18:06:23;;;;;;;0.85;0.63;;;;;;;23.90;48.70;98379.34;15278625;19;20011;-65
2023/07/13 18:11:48;;;;;;;2.58;0.60;;;;;;;23.81;48.39;98375.34;15274263;19;20016;-66
2023/07/13 18:17:14;;;;;;;2.97;0.65;;;;;;;23.57;49.50;98383.72;15275812;19;20037;-66
2023/07/13 18:22:42;;;;;;;1.33;0.70;;;;;;;23.42;50.41;98377.94;15276975;19;20090;-66
2023/07/13 18:28:06;;;;;;;1.30;0.60;;;;;;;23.14;50.81;98379.56;15273927;19;20093;-66
2023/07/13 18:33:34;;;;;;;2.45;0.50;;;;;;;22.92;51.37;98392.06;15271504;19;20014;-66
2023/07/13 18:39:02;;;;;;;0.60;0.40;;;;;;;22.75;51.76;98405.72;15275056;19;20070;-66
2023/07/13 18:44:27;;;;;;;2.60;0.50;;;;;;;22.59;53.01;98403.69;15275096;19;20025;-66
2023/07/13 18:49:55;;;;;;;2.85;0.52;;;;;;;22.33;53.56;98411.31;15272200;19;20059;-68
2023/07/13 18:55:25;;;;;;;0.40;0.40;;;;;;;22.20;54.71;98408.81;15273402;19;20018;-67
2023/07/13 19:00:56;;;;;;;2.47;0.50;;;;;;;22.02;54.68;98408.66;15284111;19;20029;-66
2023/07/13 19:06:27;;;;;;;0.80;0.50;;;;;;;21.86;55.67;98418.41;15290255;19;20022;-66
2023/07/13 19:11:54;;;;;;;1.08;0.50;;;;;;;21.72;56.26;98421.59;15265832;19;20032;-66
2023/07/13 19:17:21;;;;;;;1.33;0.43;;;;;;;21.61;57.26;98429.56;15285921;19;20015;-66
2023/07/13 19:22:45;;;;;;;2.42;0.47;;;;;;;21.52;56.90;98431.75;15288774;19;20019;-66
2023/07/13 19:28:28;;;;;;;0.52;0.35;;;;;;;21.40;58.40;98441.84;15284308;19;20022;-65
2023/07/13 19:33:53;;;;;;;0.60;0.30;;;;;;;21.37;58.31;98451.38;15284363;19;20017;-67
2023/07/13 19:39:29;;;;;;;2.70;0.65;;;;;;;21.29;59.81;98456.31;15285847;19;20506;-67
2023/07/13 19:44:56;;;;;;;3.50;0.63;;;;;;;21.24;59.82;98468.78;15285894;19;20010;-67
2023/07/13 19:50:24;;;;;;;2.22;0.40;;;;;;;21.15;61.55;98481.13;15280286;19;20010;-67
2023/07/13 19:55:49;;;;;;;1.33;0.30;;;;;;;21.08;61.05;98488.59;15285270;19;20077;-66
2023/07/13 20:01:18;;;;;;;3.58;0.60;;;;;;;21.04;62.23;98495.59;15280366;19;20010;-65
2023/07/13 20:06:43;;;;;;;1.65;0.45;;;;;;;21.02;61.50;98498.56;15282353;19;20038;-65
2023/07/13 20:12:14;;;;;;;3.22;0.40;;;;;;;21.02;62.44;98501.31;15276233;19;20019;-65
2023/07/13 20:17:45;;;;;;;0.68;0.47;;;;;;;21.01;61.80;98507.84;15280454;19;20014;-66
2023/07/13 20:23:14;;;;;;;0.73;0.40;;;;;;;20.98;62.29;98513.78;15282469;19;20431;-66
2023/07/13 20:28:40;;;;;;;2.25;0.40;;;;;;;20.96;62.59;98532.31;15282137;19;20018;-67
2023/07/13 20:34:15;;;;;;;3.53;0.90;;;;;;;20.53;98.48;98533.13;15281745;19;20046;-67
2023/07/13 20:39:40;;;;;;;5.25;1.00;;;;;;;20.33;100.00;98548.63;15281646;19;21008;-67
2023/07/13 20:45:04;;;;;;;3.50;0.90;;;;;;;20.19;100.00;98558.00;15281542;19;20050;-65
2023/07/13 20:50:33;;;;;;;3.63;0.80;;;;;;;19.77;100.00;98577.53;15281260;19;20410;-65
2023/07/13 20:55:58;;;;;;;3.50;0.88;;;;;;;19.39;100.00;98578.34;15278157;19;20325;-65
2023/07/13 21:01:27;;;;;;;1.88;0.80;;;;;;;18.93;100.00;98574.63;15279878;19;20031;-65
2023/07/13 21:06:54;;;;;;;2.40;0.90;;;;;;;18.61;100.00;98582.63;15280437;19;20018;-65
2023/07/13 21:12:19;;;;;;;2.67;0.90;;;;;;;18.32;100.00;98593.72;15281463;19;20372;-65
2023/07/13 21:17:44;;;;;;;2.05;0.90;;;;;;;18.10;100.00;98590.31;15277854;19;20527;-66
2023/07/13 21:23:28;;;;;;;3.17;0.93;;;;;;;18.07;100.00;98598.06;15282836;19;20021;-66
2023/07/13 21:28:54;;;;;;;2.53;0.80;;;;;;;18.01;100.00;98606.00;15276040;19;20014;-65
2023/07/13 21:34:22;;;;;;;1.92;0.82;;;;;;;17.96;100.00;98613.09;15277890;19;20609;-66
2023/07/13 21:39:49;;;;;;;3.13;0.90;;;;;;;17.82;100.00;98623.94;15280138;19;20026;-66
2023/07/13 21:45:25;;;;;;;1.90;1.00;;;;;;;17.72;100.00;98639.81;15280478;19;20011;-66
2023/07/13 21:50:52;;;;;;;1.75;0.80;;;;;;;17.71;100.00;98633.53;15279292;19;20508;-66
2023/07/13 21:56:22;;;;;;;1.52;0.80;;;;;;;17.76;100.00;98638.38;15278715;19;20010;-66
2023/07/13 22:01:46;;;;;;;2.15;0.90;;;;;;;17.75;100.00;98633.97;15276917;19;20017;-65
2023/07/13 22:07:13;;;;;;;1.98;0.90;;;;;;;17.77;100.00;98642.78;15277494;19;20531;-65
2023/07/13 22:12:40;;;;;;;2.85;0.95;;;;;;;17.72;100.00;98639.81;15278259;19;20077;-66
2023/07/13 22:18:13;;;;;;;1.92;0.90;;;;;;;17.55;100.00;98640.19;15278046;19;20015;-66
2023/07/13 22:23:57;;;;;;;1.75;0.80;;;;;;;17.39;100.00;98641.34;15275813;19;20019;-66
2023/07/13 22:29:30;;;;;;;0.75;0.60;;;;;;;17.33;100.00;98642.13;15278798;19;20475;-66
2023/07/13 22:35:01;;;;;;;1.52;0.70;;;;;;;17.32;100.00;98653.22;15273224;19;20025;-66
2023/07/13 22:40:27;;;;;;;1.38;0.88;;;;;;;17.28;100.00;98649.22;15274594;19;20043;-66
2023/07/13 22:45:58;;;;;;;1.50;0.73;;;;;;;17.24;100.00;98649.59;15276484;19;20017;-66
2023/07/13 22:51:24;;;;;;;2.40;0.80;;;;;;;17.27;100.00;98642.94;15274878;19;20024;-66
2023/07/13 22:56:49;;;;;;;2.97;0.70;;;;;;;17.18;100.00;98644.97;15275834;19;20015;-64
2023/07/13 23:02:26;;;;;;;1.15;0.68;;;;;;;17.14;100.00;98646.41;15273122;19;20025;-64
2023/07/13 23:07:53;;;;;;;1.33;0.80;;;;;;;17.01;100.00;98657.19;15275116;19;20029;-65
2023/07/13 23:13:17;;;;;;;2.28;0.82;;;;;;;16.93;100.00;98653.53;15269439;19;20018;-65
2023/07/13 23:18:45;;;;;;;1.63;0.98;;;;;;;16.63;100.00;98658.28;15274717;19;20022;-65
2023/07/13 23:24:10;;;;;;;2.95;0.90;;;;;;;16.33;100.00;98659.25;15274078;19;20018;-65
2023/07/13 23:29:35;;;;;;;1.83;0.98;;;;;;;16.16;100.00;98658.66;15275564;19;20010;-65
2023/07/13 23:35:02;;;;;;;2.20;1.00;;;;;;;16.15;100.00;98661.56;15269576;19;20015;-65
2023/07/13 23:40:29;;;;;;;1.90;0.80;;;;;;;16.25;100.00;98655.81;15278459;19;20074;-65
2023/07/13 23:45:54;;;;;;;1.58;0.80;;;;;;;16.24;100.00;98649.53;15287197;19;20028;-65
2023/07/13 23:51:25;;;;;;;1.70;0.80;;;;;;;16.30;100.00;98659.63;15286074;19;20472;-65
2023/07/13 23:56:49;;;;;;;3.65;0.80;;;;;;;16.28;100.00;98650.00;15292379;19;20006;-65
